Disclaimer

Please do not use the information listed here in-flight or in-navigation, as they are not provided to us by the airports but are provided by volunteers, so they might be outdated.

Search


Regions


Airport information page

Radio informations:
Tower (TWR) - 120.3 MHz
CON - 126.15 MHz

Airport informations:
Latitude: 57° 39' 46.07" N
Longitude: 018° 20' 46.36" E
Elevation: 164 feet - 50 meters
Operating hours: Remarks
Operating agency: Civil government, landing fees and diplomatic clearance may be required
Timezone: UTC+1(+2DT) - Last Sunday in March to last Sunday in October
Fuel: Jet A1, without icing nhibitor.

100/130 MIL Spec, low lead, aviation gasoline (BLUE)

Runway information:
03/21 - 6562 x 148 feet< - >2000 x 45 meters
10/28 - 3611 x 131 feet< - >1101 x 40 meters

Recent METARs:
ESSV 192050Z 05007KT 9999 -DZ FEW006 BKN018 02/01 Q1035
ESSV 192120Z 07005KT 9999 FEW017 02/01 Q1035
ESSV 192150Z AUTO 06003KT 9999 BKN020/// 02/01 Q1035 REDZ REUP

Airport on the map: